Impacts METAR Board
IDs:

KTPA - Tampa Intl Arpt, FL, US

Updated at: 0100 UTC 28 May 2018
Potential Impact None Slight Moderate High
Time 27/13Z 27/14Z 27/15Z 27/16Z 27/17Z 27/18Z 27/19Z 27/20Z 27/21Z 27/22Z 27/23Z 28/00Z 28/01Z
Temp76 77 77 78 81 79 83 85 84 83 82 82 81
Dewpt72 72 73 73 74 76 75 75 74 73 74 71 70
Altim29.74 29.73 29.73 29.73 29.72 29.71 29.71 29.71 29.71 29.71 29.71 29.73 29.75
VIS9 10 6 7 10 10 10 10 10 10 10 10 10
CIG14 17 13 13 16 17 230 250 -- -- -- -- --
CoverOVCOVCOVCOVCOVCBKNBKNBKNSCTSCTFEWSCTFEW
FltCatMVFRMVFRMVFRMVFRMVFRMVFRVFRVFRVFRVFRVFRVFRVFR
WX-RA---RA BR----TS--------------
WDir90100110100120140150200200190180170160
WSpd7 9 9 10 14 6 9 14 14 13 11 8 8
WGst-- 16 18 -- 22 16 17 22 -- -- -- -- --
Raw hourly METARs
KTPA 271253Z 09007KT 060V120 9SM -RA OVC014 24/22 A2974 RMK AO2 RAE13B16 SLP070 CIG 011V021 P0002 T02440222
KTPA 271400Z 10009G16KT 10SM BKN017 OVC025 25/22 A2973 RMK AO2 T02500222
KTPA 271456Z 11009G18KT 6SM -RA BR FEW009 BKN013 OVC027 25/23 A2973 RMK AO2 CIG 011V017 P0000 T02500228
KTPA 271553Z 10010KT 070V130 7SM FEW009 BKN013 OVC022 26/23 A2973 RMK AO2 RAE35 SLP066 CIG 011V018 P0000 T02560228
KTPA 271653Z 12014G22KT 10SM BKN016 BKN021 OVC230 27/23 A2972 RMK AO2 SLP064 CIG 014V021 BKN016 V SCT SHRA DSNT S-W T02720233
KTPA 271759Z 14006G16KT 10SM TS SCT010 BKN017 BKN026CB 26/24 A2971 RMK AO2 LTG DSNT SE RAE55 TSB57 OCNL LTGIC VC SE TS VC SE MOV N P0000 T02610244
KTPA 271853Z 15009G17KT 10SM FEW011 SCT038TCU BKN230 28/24 A2971 RMK AO2 LTG DSNT N-SE RAE1755 TSB1757E20B23E51 SLP062 CB DSNT NE-E TCU NE AND S-NW P0000 T02830239
KTPA 271953Z 20014G22KT 10SM FEW010 SCT022TCU BKN250 29/24 A2971 RMK AO2 SLP059 CB DSNT N TCU NE-SE T02940239
KTPA 272053Z 20014KT 10SM SCT023 SCT250 29/23 A2971 RMK AO2 SLP059 TCU DSNT E 60000 T02890233 58001
KTPA 272153Z COR 19013KT 10SM FEW025TCU SCT250 28/23 A2971 RMK AO2 SLP061 TCU E T02830228
KTPA 272253Z 18011KT 10SM FEW030TCU FEW120 28/23 A2971 RMK AO2 SLP060 TCU E T02780233
KTPA 272353Z 17008KT 10SM SCT030 SCT090 28/22 A2973 RMK AO2 SLP067 60000 T02780217 10294 20261 53008
KTPA 280053Z 16008KT 130V190 10SM FEW030 FEW090 27/21 A2975 RMK AO2 SLP073 T02720211



Page loaded:  01:39 UTC  |   06:39 PM Pacific  |   07:39 PM Mountain  |   08:39 PM Central  |   09:39 PM Eastern

 

ADVISORIES

FORECASTS

FORECASTS

OBSERVATIONS

USER TOOLS

ABOUT US